Time;durP1;ratioP1;P1;durP2;ratioP2;P2;SDS_P1;SDS_P2;PMS_P1;PMS_P2;Temp;Humidity;BMP_temperature;BMP_pressure;BME280_temperature;BME280_humidity;BME280_pressure;Samples;Min_cycle;Max_cycle;Signal;HPM_P1;HPM_P2
2023/08/17 00:00:26;;;;;;;27.15;15.23;;;;;;;19.83;100.00;97627.22;5047397;28;20036;-78
2023/08/17 00:02:52;;;;;;;23.52;15.15;;;;;;;19.83;100.00;97633.50;5046481;28;20017;-78
2023/08/17 00:05:17;;;;;;;25.58;14.88;;;;;;;19.82;100.00;97637.22;5046318;28;20502;-78
2023/08/17 00:07:43;;;;;;;25.27;15.02;;;;;;;19.78;100.00;97638.50;5046410;28;20021;-78
2023/08/17 00:10:09;;;;;;;21.95;15.90;;;;;;;19.71;100.00;97644.72;5046254;28;20456;-77
2023/08/17 00:12:34;;;;;;;25.83;16.10;;;;;;;19.61;100.00;97636.59;5047680;28;20113;-78
2023/08/17 00:15:00;;;;;;;26.60;16.02;;;;;;;19.64;100.00;97635.44;5047651;28;20064;-78
2023/08/17 00:17:25;;;;;;;20.73;15.38;;;;;;;19.66;100.00;97638.84;5044610;28;20029;-78
2023/08/17 00:19:51;;;;;;;22.90;15.80;;;;;;;19.70;100.00;97634.84;5026656;28;20036;-78
2023/08/17 00:22:16;;;;;;;20.58;15.15;;;;;;;19.74;100.00;97642.56;5027550;28;20101;-78
2023/08/17 00:24:44;;;;;;;22.60;14.85;;;;;;;19.74;100.00;97647.13;5020127;28;20049;-78
2023/08/17 00:27:10;;;;;;;20.23;15.05;;;;;;;19.77;100.00;97641.41;5031221;28;20078;-78
2023/08/17 00:29:36;;;;;;;20.80;15.20;;;;;;;19.79;100.00;97640.25;5026201;28;20105;-78
2023/08/17 00:32:02;;;;;;;21.83;15.68;;;;;;;19.75;100.00;97646.97;5006627;28;20125;-78
2023/08/17 00:34:28;;;;;;;19.48;14.95;;;;;;;19.65;100.00;97645.31;5025997;28;20029;-78
2023/08/17 00:36:53;;;;;;;21.73;14.65;;;;;;;19.63;100.00;97645.44;5039917;28;20021;-79
2023/08/17 00:39:19;;;;;;;20.08;15.10;;;;;;;19.53;100.00;97635.66;5038904;28;20410;-78
2023/08/17 00:41:45;;;;;;;24.30;15.20;;;;;;;19.51;100.00;97643.91;5036180;28;20477;-78
2023/08/17 00:44:11;;;;;;;21.27;15.70;;;;;;;19.56;100.00;97644.34;5027448;28;20082;-78
2023/08/17 00:46:37;;;;;;;30.30;15.95;;;;;;;19.56;100.00;97640.78;5020507;28;20128;-78
2023/08/17 00:49:03;;;;;;;19.77;15.45;;;;;;;19.57;100.00;97643.31;5029303;28;20031;-78
2023/08/17 00:51:28;;;;;;;30.40;15.18;;;;;;;19.57;100.00;97635.19;5045840;28;20123;-78
2023/08/17 00:53:58;;;;;;;25.45;16.17;;;;;;;19.54;100.00;97640.91;5045911;28;20028;-78
2023/08/17 00:56:24;;;;;;;21.42;15.40;;;;;;;19.45;100.00;97644.50;5045431;28;20483;-77
2023/08/17 00:58:49;;;;;;;27.33;16.98;;;;;;;19.51;100.00;97645.78;5046038;28;20096;-79
2023/08/17 01:01:15;;;;;;;20.83;15.68;;;;;;;19.51;100.00;97651.19;5038259;28;20128;-78
2023/08/17 01:03:41;;;;;;;26.50;17.45;;;;;;;19.50;100.00;97649.50;5034973;28;20044;-77
2023/08/17 01:06:07;;;;;;;28.42;16.85;;;;;;;19.42;100.00;97644.81;5040577;28;20515;-77
2023/08/17 01:08:33;;;;;;;23.15;17.25;;;;;;;19.36;100.00;97643.50;5010911;28;20070;-77
2023/08/17 01:11:13;;;;;;;21.45;15.32;;;;;;;19.29;100.00;97652.38;5025845;28;20405;-78
2023/08/17 01:14:05;;;;;;;25.73;16.88;;;;;;;19.26;100.00;97647.22;5025497;28;20071;-77
2023/08/17 01:16:48;;;;;;;25.98;16.67;;;;;;;19.23;100.00;97642.09;5042863;28;20492;-77
2023/08/17 01:19:23;;;;;;;21.73;16.52;;;;;;;19.17;100.00;97631.84;5038894;28;20099;-78
2023/08/17 01:21:50;;;;;;;31.13;16.08;;;;;;;19.21;100.00;97639.56;5025456;28;20028;-78
2023/08/17 01:24:15;;;;;;;25.00;16.15;;;;;;;19.07;100.00;97639.16;5025797;28;20477;-80
2023/08/17 01:26:41;;;;;;;26.60;16.05;;;;;;;19.04;100.00;97644.88;5026898;28;20094;-78
2023/08/17 01:29:07;;;;;;;45.17;30.95;;;;;;;19.06;100.00;97645.56;5037648;28;20136;-78
2023/08/17 01:31:42;;;;;;;27.23;16.45;;;;;;;19.08;100.00;97640.84;5046123;28;20053;-78
2023/08/17 01:34:10;;;;;;;29.45;16.77;;;;;;;19.06;100.00;97642.88;5026862;28;20398;-78
2023/08/17 01:36:53;;;;;;;26.20;16.67;;;;;;;19.04;100.00;97647.59;5027973;28;20095;-77
2023/08/17 01:39:22;;;;;;;21.88;16.63;;;;;;;18.96;100.00;97645.59;5029065;28;20030;-79
2023/08/17 01:41:47;;;;;;;27.83;17.42;;;;;;;19.00;100.00;97646.16;5028528;28;20060;-78
2023/08/17 01:44:13;;;;;;;25.35;16.42;;;;;;;19.07;100.00;97653.59;5028965;28;20060;-79
2023/08/17 01:46:39;;;;;;;25.25;16.52;;;;;;;19.07;100.00;97644.59;5038165;28;20089;-79
2023/08/17 01:49:04;;;;;;;26.45;17.45;;;;;;;19.06;100.00;97651.00;5049926;28;20025;-77
2023/08/17 01:51:30;;;;;;;24.73;17.58;;;;;;;18.99;100.00;97656.13;5041048;28;20057;-78
2023/08/17 01:53:55;;;;;;;29.77;18.90;;;;;;;18.87;100.00;97641.88;5048033;28;20033;-77
2023/08/17 01:56:21;;;;;;;25.88;18.25;;;;;;;18.87;100.00;97641.88;5042008;28;20506;-79
2023/08/17 01:58:46;;;;;;;28.45;16.50;;;;;;;18.82;100.00;97644.19;5029641;28;20049;-78
2023/08/17 02:01:12;;;;;;;36.50;16.98;;;;;;;18.76;100.00;97644.75;5028754;28;20025;-79
2023/08/17 02:03:37;;;;;;;26.15;16.88;;;;;;;18.74;100.00;97633.19;5029648;28;20078;-78
2023/08/17 02:06:03;;;;;;;30.23;16.58;;;;;;;18.77;100.00;97641.03;5028542;28;20040;-78
2023/08/17 02:08:29;;;;;;;37.30;16.90;;;;;;;18.72;100.00;97640.63;5029768;28;20022;-79
2023/08/17 02:10:55;;;;;;;23.40;16.02;;;;;;;18.68;100.00;97647.31;5028248;28;20033;-78
2023/08/17 02:13:20;;;;;;;22.38;15.70;;;;;;;18.60;100.00;97643.59;5028473;28;20036;-78
2023/08/17 02:15:49;;;;;;;29.10;15.35;;;;;;;18.62;100.00;97639.75;5028280;28;20021;-77
2023/08/17 02:18:14;;;;;;;27.20;15.40;;;;;;;18.58;100.00;97632.91;5042434;28;20017;-79
2023/08/17 02:20:40;;;;;;;23.45;15.45;;;;;;;18.54;100.00;97633.34;5031546;28;20028;-78
2023/08/17 02:23:05;;;;;;;25.10;15.45;;;;;;;18.64;100.00;97637.75;5048092;28;20029;-78
2023/08/17 02:25:35;;;;;;;20.10;15.57;;;;;;;18.63;100.00;97638.75;5049462;28;20021;-78
2023/08/17 02:28:02;;;;;;;23.38;15.50;;;;;;;18.58;100.00;97637.50;5032741;28;20040;-79
2023/08/17 02:30:27;;;;;;;24.77;15.13;;;;;;;18.53;100.00;97628.91;5042418;28;20042;-79
2023/08/17 02:32:53;;;;;;;22.77;15.02;;;;;;;18.56;100.00;97637.63;5028107;28;20033;-77
2023/08/17 02:35:18;;;;;;;26.02;15.85;;;;;;;18.51;100.00;97630.91;5042305;28;20054;-78
2023/08/17 02:37:44;;;;;;;32.55;16.50;;;;;;;18.45;100.00;97626.91;5046600;28;20055;-78
2023/08/17 02:40:10;;;;;;;26.65;15.75;;;;;;;18.46;100.00;97636.72;5026698;28;20032;-78
2023/08/17 02:42:35;;;;;;;36.88;16.63;;;;;;;18.54;100.00;97636.06;5027881;28;20544;-78
2023/08/17 02:45:01;;;;;;;22.10;14.95;;;;;;;18.46;100.00;97628.59;5047272;28;20401;-78
2023/08/17 02:47:34;;;;;;;24.95;16.58;;;;;;;18.47;100.00;97641.13;5024514;28;20299;-78
2023/08/17 02:50:00;;;;;;;24.55;16.20;;;;;;;18.47;100.00;97638.44;5052634;28;20033;-78
2023/08/17 02:52:25;;;;;;;24.33;16.08;;;;;;;18.46;100.00;97633.19;5029141;28;20359;-79
2023/08/17 02:54:51;;;;;;;35.90;18.10;;;;;;;18.34;100.00;97637.84;5028989;28;20058;-79
2023/08/17 02:57:18;;;;;;;38.67;17.65;;;;;;;18.25;100.00;97634.13;5034994;28;20436;-78
2023/08/17 02:59:43;;;;;;;46.15;18.48;;;;;;;18.33;100.00;97638.88;5043322;28;20029;-78
2023/08/17 03:02:09;;;;;;;44.70;17.35;;;;;;;18.27;100.00;97642.13;5045615;28;20503;-78
2023/08/17 03:04:34;;;;;;;27.48;17.70;;;;;;;18.25;100.00;97638.69;5039902;28;20029;-78
2023/08/17 03:07:00;;;;;;;29.42;17.08;;;;;;;18.21;100.00;97640.81;5047490;28;20033;-78
2023/08/17 03:09:25;;;;;;;27.15;17.98;;;;;;;18.18;100.00;97632.16;5047582;28;20061;-78
2023/08/17 03:11:52;;;;;;;29.83;17.08;;;;;;;18.16;100.00;97634.97;5031126;28;20116;-78
2023/08/17 03:14:17;;;;;;;27.27;17.55;;;;;;;18.15;100.00;97637.84;5047516;28;20496;-78
2023/08/17 03:16:43;;;;;;;34.00;16.23;;;;;;;18.14;100.00;97641.53;5047647;28;20085;-79
2023/08/17 03:19:10;;;;;;;34.10;16.65;;;;;;;18.12;100.00;97638.94;5038996;28;20048;-79
2023/08/17 03:21:36;;;;;;;26.23;16.60;;;;;;;18.15;100.00;97640.53;5041127;28;20071;-79
2023/08/17 03:24:02;;;;;;;30.50;17.00;;;;;;;18.12;100.00;97635.41;5034264;28;20453;-78
2023/08/17 03:26:27;;;;;;;32.88;18.48;;;;;;;18.12;100.00;97632.69;5027450;28;20126;-79
2023/08/17 03:28:53;;;;;;;43.70;18.23;;;;;;;18.09;100.00;97641.09;5028860;28;20094;-79
2023/08/17 03:31:21;;;;;;;33.47;18.35;;;;;;;18.12;100.00;97638.13;5027171;28;20156;-79
2023/08/17 03:33:46;;;;;;;40.03;19.75;;;;;;;18.10;100.00;97648.22;5028626;28;20029;-78
2023/08/17 03:36:12;;;;;;;67.72;23.70;;;;;;;18.11;100.00;97637.25;5036877;28;20116;-79
2023/08/17 03:38:39;;;;;;;79.28;26.50;;;;;;;18.13;100.00;97646.09;5048232;28;20480;-80
2023/08/17 03:41:05;;;;;;;45.75;21.20;;;;;;;18.18;100.00;97648.38;5031472;28;20069;-78
2023/08/17 03:43:30;;;;;;;37.55;20.20;;;;;;;18.19;100.00;97644.66;5045009;28;20464;-79
2023/08/17 03:45:56;;;;;;;45.47;21.08;;;;;;;18.20;100.00;97641.84;5112512;27;20032;-80
2023/08/17 03:48:22;;;;;;;38.10;20.13;;;;;;;18.28;100.00;97654.66;5048092;28;20029;-79
2023/08/17 03:50:52;;;;;;;45.60;21.50;;;;;;;18.29;100.00;97657.25;5046811;28;20033;-79
2023/08/17 03:53:17;;;;;;;49.50;20.85;;;;;;;18.33;100.00;97657.81;5030247;28;20415;-78
2023/08/17 03:55:48;;;;;;;56.13;21.90;;;;;;;18.36;100.00;97657.53;5011280;28;20034;-78
2023/08/17 03:58:14;;;;;;;60.85;20.90;;;;;;;18.40;100.00;97661.66;5026580;28;20181;-78
2023/08/17 04:00:40;;;;;;;43.17;20.70;;;;;;;18.37;100.00;97661.94;5025893;28;20108;-78
2023/08/17 04:03:06;;;;;;;73.13;20.75;;;;;;;18.39;100.00;97658.09;5028316;28;20031;-79
2023/08/17 04:05:32;;;;;;;82.28;22.63;;;;;;;18.50;100.00;97665.28;5043189;28;20030;-78
2023/08/17 04:08:01;;;;;;;82.82;22.48;;;;;;;18.52;100.00;97654.31;5028181;28;20025;-78
2023/08/17 04:10:27;;;;;;;59.08;21.08;;;;;;;18.67;100.00;97659.13;5035071;28;20485;-78
2023/08/17 04:12:52;;;;;;;83.05;21.50;;;;;;;18.73;100.00;97661.31;5030089;28;20029;-77
2023/08/17 04:15:18;;;;;;;37.63;18.00;;;;;;;18.78;100.00;97672.56;5046449;28;20415;-78
2023/08/17 04:17:43;;;;;;;32.38;17.92;;;;;;;18.76;100.00;97658.31;5044539;28;20021;-78
2023/08/17 04:20:10;;;;;;;29.73;18.38;;;;;;;18.81;100.00;97664.16;5044059;28;20483;-79
2023/08/17 04:22:35;;;;;;;33.83;17.05;;;;;;;18.86;100.00;97666.41;5046462;28;20112;-79
2023/08/17 04:25:00;;;;;;;36.85;17.10;;;;;;;18.98;100.00;97664.44;5046354;28;20213;-79
2023/08/17 04:27:26;;;;;;;35.05;17.95;;;;;;;19.01;100.00;97669.56;5047573;28;20021;-77
2023/08/17 04:29:51;;;;;;;31.60;16.98;;;;;;;19.09;100.00;97666.97;5027042;28;20049;-77
2023/08/17 04:32:17;;;;;;;31.08;16.42;;;;;;;19.22;100.00;97675.69;5027854;28;20380;-79
2023/08/17 04:34:46;;;;;;;46.90;19.02;;;;;;;19.27;100.00;97676.09;5008793;28;20029;-78
2023/08/17 04:37:11;;;;;;;29.48;16.58;;;;;;;19.33;100.00;97672.78;5033870;28;20369;-80
2023/08/17 04:39:37;;;;;;;25.20;16.80;;;;;;;19.29;100.00;97666.78;5035871;28;20040;-79
2023/08/17 04:42:03;;;;;;;32.50;17.05;;;;;;;19.25;100.00;97659.97;5026329;28;20053;-79
2023/08/17 04:44:29;;;;;;;61.55;20.65;;;;;;;19.26;100.00;97663.50;5026507;28;20036;-78
2023/08/17 04:46:55;;;;;;;71.25;20.05;;;;;;;19.31;100.00;97666.66;5026046;28;20044;-79
2023/08/17 04:49:20;;;;;;;44.95;19.55;;;;;;;19.35;100.00;97665.34;5027424;28;20408;-79
2023/08/17 04:51:46;;;;;;;63.00;21.50;;;;;;;19.44;100.00;97662.63;5026118;28;20170;-78
2023/08/17 04:54:11;;;;;;;36.78;19.38;;;;;;;19.58;100.00;97664.03;5026219;28;20013;-78
2023/08/17 04:56:37;;;;;;;29.02;17.58;;;;;;;19.83;100.00;97662.53;5025731;28;20490;-78
2023/08/17 04:59:02;;;;;;;46.50;17.80;;;;;;;20.03;100.00;97664.97;5027134;28;20105;-79
2023/08/17 05:01:28;;;;;;;43.28;17.02;;;;;;;20.18;100.00;97657.19;5025713;28;20121;-77
2023/08/17 05:03:54;;;;;;;31.05;17.17;;;;;;;20.25;100.00;97662.84;5026019;28;20022;-77
2023/08/17 05:06:20;;;;;;;32.22;15.88;;;;;;;20.34;100.00;97661.97;5025882;28;20025;-77
2023/08/17 05:08:45;;;;;;;47.28;17.45;;;;;;;20.29;100.00;97661.59;5026929;28;20510;-79
2023/08/17 05:11:11;;;;;;;31.63;15.38;;;;;;;20.42;100.00;97653.94;5027857;28;20025;-78
2023/08/17 05:13:36;;;;;;;29.80;18.00;;;;;;;20.52;100.00;97660.13;5030887;28;20053;-78
2023/08/17 05:16:02;;;;;;;34.58;17.05;;;;;;;20.47;100.00;97663.34;5015338;28;20029;-78
2023/08/17 05:18:27;;;;;;;39.65;16.50;;;;;;;20.53;100.00;97660.00;5050504;28;20017;-78
2023/08/17 05:20:53;;;;;;;28.20;16.77;;;;;;;20.56;100.00;97661.53;5050856;28;20428;-79
2023/08/17 05:23:19;;;;;;;40.38;17.98;;;;;;;20.66;100.00;97662.34;5048995;28;20068;-78
2023/08/17 05:25:48;;;;;;;37.25;16.48;;;;;;;20.79;100.00;97657.38;5049190;28;20053;-78
2023/08/17 05:28:14;;;;;;;49.70;14.88;;;;;;;20.85;100.00;97662.19;5043520;27;20025;-78
2023/08/17 05:30:40;;;;;;;39.33;15.32;;;;;;;20.81;100.00;97651.75;5029389;28;20089;-80
2023/08/17 05:33:05;;;;;;;26.80;14.27;;;;;;;20.83;100.00;97660.59;5020631;28;20041;-78
2023/08/17 05:35:32;;;;;;;22.58;15.15;;;;;;;20.77;100.00;97667.53;5042655;28;20665;-78
2023/08/17 05:37:57;;;;;;;25.27;14.88;;;;;;;20.70;100.00;97662.88;5030357;28;20033;-78
2023/08/17 05:40:23;;;;;;;31.67;15.25;;;;;;;20.69;100.00;97666.59;5035190;28;20029;-78
2023/08/17 05:42:48;;;;;;;28.65;14.95;;;;;;;20.84;100.00;97665.91;5030288;28;20564;-78
2023/08/17 05:45:14;;;;;;;23.88;14.98;;;;;;;20.82;100.00;97667.06;5029150;28;20075;-78
2023/08/17 05:47:39;;;;;;;24.50;15.93;;;;;;;20.89;100.00;97673.59;5030352;28;20086;-78
2023/08/17 05:50:05;;;;;;;33.00;14.90;;;;;;;21.12;100.00;97672.13;5028919;28;20151;-78
2023/08/17 05:52:32;;;;;;;47.15;16.65;;;;;;;21.18;100.00;97668.78;5028779;28;20033;-79
2023/08/17 05:54:57;;;;;;;30.10;15.32;;;;;;;21.36;100.00;97666.88;5029716;28;20500;-79
2023/08/17 05:57:23;;;;;;;21.05;14.73;;;;;;;21.80;100.00;97659.50;5048867;28;20057;-80
2023/08/17 05:59:48;;;;;;;34.13;17.00;;;;;;;22.58;100.00;97660.16;5048479;28;20021;-79
2023/08/17 06:02:14;;;;;;;28.80;13.95;;;;;;;24.15;100.00;97641.50;5048497;28;20078;-79
2023/08/17 06:04:40;;;;;;;37.00;12.75;;;;;;;25.96;100.00;97629.69;5031853;28;20028;-79
2023/08/17 06:07:06;;;;;;;23.80;11.68;;;;;;;27.34;100.00;97629.44;5048179;28;20175;-79
2023/08/17 06:09:31;;;;;;;18.50;10.52;;;;;;;27.55;100.00;97633.22;5044638;28;20101;-78
2023/08/17 06:11:57;;;;;;;16.38;10.02;;;;;;;28.19;100.00;97623.75;5044823;28;20411;-78
2023/08/17 06:14:22;;;;;;;16.45;11.52;;;;;;;29.26;100.00;97623.91;5028339;28;20624;-78
2023/08/17 06:16:48;;;;;;;25.05;9.65;;;;;;;30.44;100.00;97610.84;5011588;28;20030;-78
2023/08/17 06:19:13;;;;;;;26.30;10.07;;;;;;;31.08;97.70;97616.28;5031695;28;20033;-78
2023/08/17 06:21:39;;;;;;;31.55;9.50;;;;;;;31.59;90.13;97610.59;5048127;28;20021;-79
2023/08/17 06:24:05;;;;;;;24.35;10.45;;;;;;;30.91;93.36;97614.25;5030685;28;20144;-78
2023/08/17 06:26:30;;;;;;;29.88;10.57;;;;;;;30.34;98.52;97623.38;5023079;27;20444;-80
2023/08/17 06:28:56;;;;;;;18.15;9.85;;;;;;;30.18;99.25;97626.66;5027563;27;20458;-78
2023/08/17 06:31:27;;;;;;;15.95;9.70;;;;;;;29.48;100.00;97634.53;5046142;27;20042;-78
2023/08/17 06:33:52;;;;;;;33.03;10.82;;;;;;;28.80;100.00;97640.31;5025318;28;20124;-79
2023/08/17 06:36:18;;;;;;;15.82;10.38;;;;;;;28.10;100.00;97649.72;5028827;28;20106;-79
2023/08/17 06:38:43;;;;;;;11.98;9.68;;;;;;;28.76;100.00;97658.34;5041316;28;20021;-79
2023/08/17 06:41:09;;;;;;;13.75;8.73;;;;;;;30.27;100.00;97636.38;5036507;28;20034;-78
2023/08/17 06:43:34;;;;;;;15.45;9.40;;;;;;;31.33;94.69;97630.16;5032424;28;20576;-78
2023/08/17 06:46:01;;;;;;;34.78;11.60;;;;;;;32.00;89.30;97626.59;5041046;27;20093;-78
2023/08/17 06:48:27;;;;;;;13.25;10.43;;;;;;;30.64;97.23;97636.47;5031922;28;20484;-78
2023/08/17 06:50:53;;;;;;;20.08;10.98;;;;;;;30.21;100.00;97634.50;5036594;27;20037;-78
2023/08/17 06:53:18;;;;;;;16.70;10.90;;;;;;;29.88;100.00;97640.91;5025810;27;20034;-77
2023/08/17 06:55:44;;;;;;;27.15;11.10;;;;;;;30.24;100.00;97637.63;5026436;28;20385;-79
2023/08/17 06:58:09;;;;;;;22.33;10.48;;;;;;;31.07;96.57;97636.69;5027199;28;20025;-79
2023/08/17 07:00:35;;;;;;;17.15;10.95;;;;;;;30.74;97.17;97635.16;5025200;28;20452;-78
2023/08/17 07:03:01;;;;;;;20.88;10.02;;;;;;;30.14;100.00;97645.53;5042808;28;20033;-78
2023/08/17 07:05:26;;;;;;;14.32;11.05;;;;;;;30.21;100.00;97632.56;5031242;28;20030;-77
2023/08/17 07:07:52;;;;;;;18.80;10.40;;;;;;;30.17;100.00;97647.03;5028686;28;20021;-78
2023/08/17 07:10:18;;;;;;;16.58;9.98;;;;;;;30.56;99.80;97641.41;5010281;28;20041;-78
2023/08/17 07:12:44;;;;;;;17.38;10.20;;;;;;;31.33;95.27;97637.59;5028555;28;20097;-78
2023/08/17 07:15:10;;;;;;;16.48;11.05;;;;;;;30.27;100.00;97645.50;5008971;28;20108;-79
2023/08/17 07:17:38;;;;;;;16.48;10.38;;;;;;;29.39;100.00;97657.88;5038524;28;20037;-79
2023/08/17 07:20:07;;;;;;;22.15;10.00;;;;;;;30.89;100.00;97644.00;5042135;28;20086;-79
2023/08/17 07:22:33;;;;;;;34.05;10.57;;;;;;;31.23;96.08;97648.28;5028533;28;20025;-79
2023/08/17 07:24:58;;;;;;;16.25;9.68;;;;;;;30.97;97.49;97641.88;5028803;28;20029;-79
2023/08/17 07:27:24;;;;;;;15.82;9.75;;;;;;;32.15;90.93;97638.19;5027605;28;20018;-79
2023/08/17 07:29:50;;;;;;;20.08;10.48;;;;;;;32.61;88.12;97634.06;5026931;28;20106;-79
2023/08/17 07:32:15;;;;;;;13.68;9.38;;;;;;;33.94;78.40;97629.94;5043957;28;20471;-79
2023/08/17 07:34:41;;;;;;;20.05;8.88;;;;;;;35.39;67.58;97622.28;5048322;28;20025;-79
2023/08/17 07:37:06;;;;;;;27.83;9.90;;;;;;;36.30;59.97;97616.28;5047214;28;20128;-79
2023/08/17 07:39:33;;;;;;;42.60;10.10;;;;;;;35.29;63.50;97614.59;5030440;28;20124;-79
2023/08/17 07:41:59;;;;;;;38.35;10.70;;;;;;;36.28;58.77;97612.94;5046984;28;20077;-79
2023/08/17 07:44:25;;;;;;;12.50;8.38;;;;;;;36.20;56.99;97606.97;5047182;28;20060;-79
2023/08/17 07:46:50;;;;;;;11.60;10.02;;;;;;;33.73;70.12;97622.22;5046768;28;20021;-79
2023/08/17 07:49:16;;;;;;;15.23;10.10;;;;;;;33.10;77.77;97621.94;5047114;28;20464;-79
2023/08/17 07:51:41;;;;;;;18.15;11.07;;;;;;;34.24;72.06;97621.53;5031501;28;20112;-78
2023/08/17 07:54:07;;;;;;;9.88;8.52;;;;;;;34.61;67.08;97614.59;5047051;28;20120;-80
2023/08/17 07:56:32;;;;;;;13.55;9.35;;;;;;;35.02;67.10;97620.97;5030144;28;20078;-78
2023/08/17 07:58:58;;;;;;;16.35;8.75;;;;;;;35.84;60.23;97606.38;5027081;28;20033;-79
2023/08/17 08:01:24;;;;;;;12.70;9.38;;;;;;;35.57;60.56;97613.72;5026963;28;20033;-80
2023/08/17 08:03:49;;;;;;;10.95;8.68;;;;;;;36.89;55.16;97606.22;5027235;28;20029;-78
2023/08/17 08:06:15;;;;;;;17.73;9.35;;;;;;;37.79;52.03;97599.94;5028304;28;20488;-79
2023/08/17 08:08:41;;;;;;;14.60;8.38;;;;;;;36.34;53.92;97594.34;5026876;28;20021;-78
2023/08/17 08:11:06;;;;;;;14.60;8.50;;;;;;;37.07;52.25;97595.88;5028082;28;20040;-79
2023/08/17 08:13:32;;;;;;;16.02;8.60;;;;;;;37.61;49.88;97583.59;5026724;28;20022;-78
2023/08/17 08:16:01;;;;;;;14.00;8.60;;;;;;;37.27;49.82;97585.75;5026533;28;20392;-79
2023/08/17 08:18:26;;;;;;;12.23;8.10;;;;;;;37.83;48.70;97575.94;5010262;28;20052;-79
2023/08/17 08:20:52;;;;;;;18.08;8.15;;;;;;;38.75;46.35;97572.59;5045214;28;20029;-80
2023/08/17 08:23:17;;;;;;;17.35;8.57;;;;;;;39.37;45.43;97575.34;5030199;28;20085;-79
2023/08/17 08:25:43;;;;;;;12.30;8.35;;;;;;;37.38;48.88;97579.16;5029814;28;20476;-78
2023/08/17 08:28:09;;;;;;;18.95;8.80;;;;;;;37.10;49.02;97573.03;5047202;28;20025;-79
2023/08/17 08:30:40;;;;;;;14.75;7.75;;;;;;;36.71;50.50;97559.16;5047570;28;20128;-79
2023/08/17 08:33:05;;;;;;;18.20;8.20;;;;;;;37.53;49.70;97570.13;5046603;28;20028;-79
2023/08/17 08:35:31;;;;;;;16.80;8.00;;;;;;;36.57;52.16;97576.56;5046355;28;20033;-79
2023/08/17 08:37:58;;;;;;;9.13;7.68;;;;;;;36.12;53.04;97566.44;5037134;28;20109;-78
2023/08/17 08:40:28;;;;;;;9.75;7.80;;;;;;;35.26;56.95;97576.13;5026585;28;20033;-79
2023/08/17 08:42:54;;;;;;;14.35;7.05;;;;;;;36.97;50.44;97563.09;5027544;28;20035;-79
2023/08/17 08:45:22;;;;;;;13.65;6.90;;;;;;;37.16;48.97;97563.59;5045898;28;20104;-78
2023/08/17 08:47:48;;;;;;;13.48;6.70;;;;;;;38.08;46.49;97552.09;5045652;28;20617;-79
2023/08/17 08:50:18;;;;;;;13.50;7.75;;;;;;;38.71;45.37;97556.63;5029409;28;20029;-78
2023/08/17 08:52:52;;;;;;;17.90;8.45;;;;;;;39.00;44.75;97549.47;5047241;28;20541;-78
2023/08/17 08:55:18;;;;;;;12.20;7.72;;;;;;;36.67;48.44;97560.78;5033258;28;20064;-78
2023/08/17 08:57:44;;;;;;;14.52;7.50;;;;;;;37.40;49.39;97562.16;5027315;28;20025;-78
2023/08/17 09:00:12;;;;;;;9.93;7.43;;;;;;;38.66;45.71;97548.22;5037483;28;20025;-78
2023/08/17 09:02:37;;;;;;;15.18;8.43;;;;;;;38.75;45.05;97552.16;5045855;28;20057;-79
2023/08/17 09:05:06;;;;;;;13.00;6.97;;;;;;;37.88;46.21;97539.66;5029606;28;20114;-79
2023/08/17 09:07:32;;;;;;;7.57;6.45;;;;;;;38.83;44.42;97532.06;5026114;28;20021;-79
2023/08/17 09:09:57;;;;;;;11.10;6.68;;;;;;;40.45;42.05;97532.94;5035187;28;20040;-79
2023/08/17 09:12:24;;;;;;;8.70;6.40;;;;;;;40.52;40.23;97517.47;5042631;28;20018;-81
2023/08/17 09:14:50;;;;;;;10.65;6.97;;;;;;;40.31;41.04;97515.84;5034237;28;20055;-80
2023/08/17 09:17:25;;;;;;;11.52;6.53;;;;;;;40.89;40.55;97522.63;5037528;28;20188;-79
2023/08/17 09:19:54;;;;;;;10.65;7.25;;;;;;;39.04;42.03;97517.84;5029575;28;20033;-79
2023/08/17 09:22:46;;;;;;;15.05;8.05;;;;;;;40.28;41.35;97507.16;5038653;28;20021;-80
2023/08/17 09:25:22;;;;;;;11.85;6.43;;;;;;;39.77;41.19;97510.09;5044032;28;20486;-79
2023/08/17 09:27:47;;;;;;;7.82;6.47;;;;;;;39.77;40.85;97504.47;5046870;28;20060;-78
2023/08/17 09:30:13;;;;;;;9.75;6.72;;;;;;;41.05;38.77;97503.75;5045408;28;20056;-78
2023/08/17 09:32:39;;;;;;;10.98;6.57;;;;;;;40.82;39.54;97505.28;5045649;28;20490;-78
2023/08/17 09:35:05;;;;;;;10.52;5.85;;;;;;;39.75;40.29;97501.09;5046411;28;20029;-77
2023/08/17 09:37:31;;;;;;;8.70;6.72;;;;;;;40.17;40.01;97497.97;5046819;28;20033;-77
2023/08/17 09:39:57;;;;;;;10.98;5.90;;;;;;;40.66;39.22;97497.22;5045367;28;20508;-76
2023/08/17 09:42:25;;;;;;;12.07;6.00;;;;;;;41.49;38.25;97496.13;5045583;28;20033;-79
2023/08/17 09:44:55;;;;;;;10.27;6.28;;;;;;;41.32;38.31;97486.41;5043844;28;20017;-79
2023/08/17 09:47:21;;;;;;;8.93;6.13;;;;;;;41.13;38.35;97488.25;5024588;28;20074;-78
2023/08/17 09:49:52;;;;;;;11.95;6.70;;;;;;;41.73;37.80;97481.28;5025787;28;20032;-80
2023/08/17 09:52:19;;;;;;;29.20;7.45;;;;;;;41.24;38.15;97478.59;5023999;28;20037;-79
2023/08/17 09:54:46;;;;;;;29.75;7.95;;;;;;;42.65;36.15;97468.72;5025420;28;20075;-80
2023/08/17 09:57:12;;;;;;;10.68;5.70;;;;;;;42.58;35.49;97462.63;5025845;28;20026;-79
2023/08/17 09:59:37;;;;;;;12.68;6.35;;;;;;;42.49;35.93;97456.81;5028924;28;20029;-79
2023/08/17 10:02:03;;;;;;;29.35;6.85;;;;;;;42.89;35.58;97460.22;5025870;28;20086;-82
2023/08/17 10:04:32;;;;;;;10.60;5.38;;;;;;;43.23;33.94;97458.00;5020493;28;20484;-81
2023/08/17 10:07:01;;;;;;;24.33;8.65;;;;;;;43.60;33.74;97455.13;5033382;28;20026;-81
2023/08/17 10:09:42;;;;;;;14.15;5.55;;;;;;;42.67;34.91;97458.03;5027948;27;20365;-82
2023/08/17 10:12:15;;;;;;;11.02;5.30;;;;;;;43.22;33.41;97442.28;5035454;28;20024;-81
2023/08/17 10:14:46;;;;;;;11.05;5.75;;;;;;;43.88;32.53;97441.94;5022865;28;20033;-81
2023/08/17 10:17:15;;;;;;;8.90;5.22;;;;;;;43.75;32.84;97434.28;5027350;28;20400;-81
2023/08/17 10:19:51;;;;;;;12.70;5.47;;;;;;;44.71;32.27;97438.81;5026485;27;20017;-81
2023/08/17 10:22:45;;;;;;;7.65;4.47;;;;;;;45.21;31.28;97439.63;5026609;28;20033;-82
2023/08/17 10:25:13;;;;;;;19.23;5.88;;;;;;;45.66;30.74;97433.97;5036429;28;20044;-81
2023/08/17 10:27:39;;;;;;;8.27;5.38;;;;;;;44.95;31.25;97424.44;5028001;27;21075;-82
2023/08/17 10:30:06;;;;;;;10.40;5.90;;;;;;;43.04;33.38;97423.41;5024065;27;20100;-81
2023/08/17 10:32:31;;;;;;;12.40;5.70;;;;;;;41.57;35.04;97410.34;5028887;27;20477;-83
2023/08/17 10:34:58;;;;;;;15.75;5.38;;;;;;;40.44;36.92;97419.88;5030048;27;20024;-82
2023/08/17 10:37:24;;;;;;;10.27;5.90;;;;;;;38.97;39.74;97421.28;5009771;28;20026;-82
2023/08/17 10:39:50;;;;;;;9.10;5.53;;;;;;;39.52;38.97;97429.69;5012209;28;20037;-83
2023/08/17 10:42:31;;;;;;;11.15;5.38;;;;;;;41.33;36.41;97415.03;5034272;28;20108;-82
2023/08/17 10:44:56;;;;;;;12.63;5.20;;;;;;;42.57;34.90;97410.28;5033843;28;20031;-82
2023/08/17 10:47:25;;;;;;;29.00;5.75;;;;;;;43.08;33.77;97408.41;5063968;28;20107;-82
2023/08/17 10:49:51;;;;;;;16.10;5.70;;;;;;;42.85;33.68;97402.84;5040315;28;20093;-82
2023/08/17 10:52:28;;;;;;;27.33;6.13;;;;;;;43.86;32.76;97407.59;5047585;28;20037;-81
2023/08/17 10:54:55;;;;;;;6.03;4.70;;;;;;;42.84;33.34;97396.38;5046879;28;20484;-82
2023/08/17 10:57:30;;;;;;;9.52;4.97;;;;;;;41.04;35.16;97389.75;5013151;28;20021;-81
2023/08/17 11:00:15;;;;;;;6.03;5.20;;;;;;;41.36;35.79;97404.09;5030279;28;20018;-82
2023/08/17 11:02:42;;;;;;;8.85;4.70;;;;;;;42.96;34.27;97405.19;5039691;28;20033;-83
2023/08/17 11:05:08;;;;;;;19.02;6.07;;;;;;;43.49;32.67;97385.16;5036331;28;20052;-79
2023/08/17 11:07:43;;;;;;;8.95;5.40;;;;;;;42.85;33.92;97383.97;5037048;28;20057;-78
2023/08/17 11:10:27;;;;;;;9.85;5.00;;;;;;;43.39;32.61;97385.34;5047047;28;20033;-79
2023/08/17 11:12:59;;;;;;;7.70;4.75;;;;;;;45.11;31.08;97385.34;5026763;28;20053;-79
2023/08/17 11:15:25;;;;;;;10.70;4.53;;;;;;;45.88;30.46;97374.53;5035515;28;20065;-79